createdAt,value
2019-04-04T00:01:24.059Z,3.97
2019-04-04T00:03:51.496Z,3.99
2019-04-04T00:06:17.777Z,4.01
2019-04-04T00:08:43.751Z,4.03
2019-04-04T00:11:09.596Z,4.03
2019-04-04T00:13:35.641Z,4.04
2019-04-04T00:16:01.515Z,4.04
2019-04-04T00:18:27.925Z,4.03
2019-04-04T00:20:54.132Z,4.02
2019-04-04T00:23:20.003Z,4.04
2019-04-04T00:25:45.863Z,4.04
2019-04-04T00:28:12.979Z,4.08
2019-04-04T00:30:39.666Z,4.09
2019-04-04T00:33:05.632Z,4.11
2019-04-04T00:35:31.728Z,4.10
2019-04-04T00:37:57.601Z,4.10
2019-04-04T00:40:23.547Z,4.09
2019-04-04T00:42:49.551Z,4.09
2019-04-04T00:45:15.408Z,4.10
2019-04-04T00:47:41.395Z,4.09
2019-04-04T00:50:07.614Z,4.06
2019-04-04T00:52:33.566Z,4.04
2019-04-04T00:54:59.470Z,4.02
2019-04-04T00:57:25.464Z,4.02
2019-04-04T00:59:53.389Z,4.05
2019-04-04T01:02:19.005Z,4.06
2019-04-04T01:04:45.077Z,4.10
2019-04-04T01:07:10.946Z,4.08
2019-04-04T01:09:36.783Z,4.06
2019-04-04T01:12:03.266Z,4.04
2019-04-04T01:14:29.851Z,4.04
2019-04-04T01:16:55.842Z,4.04
2019-04-04T01:19:21.926Z,4.05
2019-04-04T01:21:48.091Z,4.08
2019-04-04T01:24:13.967Z,4.12
2019-04-04T01:26:40.006Z,4.14
2019-04-04T01:29:06.087Z,4.15
2019-04-04T01:31:32.070Z,4.15
2019-04-04T01:33:58.123Z,4.16
2019-04-04T01:36:25.209Z,4.16
2019-04-04T01:38:51.643Z,4.18
2019-04-04T01:41:17.664Z,4.19
2019-04-04T01:43:43.710Z,4.21
2019-04-04T01:46:09.684Z,4.22
2019-04-04T01:48:35.673Z,4.21
2019-04-04T01:51:01.532Z,4.23
2019-04-04T01:53:28.128Z,4.23
2019-04-04T01:55:55.302Z,4.23
2019-04-04T01:58:21.175Z,4.27
2019-04-04T02:00:47.223Z,4.28
2019-04-04T02:03:13.289Z,4.26
2019-04-04T02:05:39.147Z,4.25
2019-04-04T02:08:04.992Z,4.27
2019-04-04T02:10:30.997Z,4.27
2019-04-04T02:12:56.839Z,4.30
2019-04-04T02:15:22.793Z,4.31
2019-04-04T02:17:48.876Z,4.34
2019-04-04T02:20:14.852Z,4.35
2019-04-04T02:22:40.722Z,4.36
2019-04-04T02:25:06.883Z,4.33
2019-04-04T02:27:32.709Z,4.31
2019-04-04T02:29:58.555Z,4.31
2019-04-04T02:32:27.527Z,4.32
2019-04-04T02:34:53.601Z,4.35
2019-04-04T02:37:21.226Z,4.34
2019-04-04T02:39:47.370Z,4.35
2019-04-04T02:42:13.338Z,4.35
2019-04-04T02:44:39.207Z,4.35
2019-04-04T02:47:05.356Z,4.36
2019-04-04T02:49:31.313Z,4.35
2019-04-04T02:51:57.167Z,4.31
2019-04-04T02:54:24.785Z,4.27
2019-04-04T02:56:50.864Z,4.22
2019-04-04T02:59:20.314Z,4.20
2019-04-04T03:01:44.829Z,4.18
2019-04-04T03:04:13.480Z,4.14
2019-04-04T03:06:38.470Z,4.13
2019-04-04T03:09:09.055Z,4.14
2019-04-04T03:11:32.998Z,4.13
2019-04-04T03:14:03.420Z,4.16
2019-04-04T03:16:26.863Z,4.20
2019-04-04T03:18:52.739Z,4.21
2019-04-04T03:21:22.026Z,4.22
2019-04-04T03:23:46.442Z,4.23
2019-04-04T03:26:12.404Z,4.25
2019-04-04T03:28:38.392Z,4.23
2019-04-04T03:31:04.489Z,4.25
2019-04-04T03:33:32.531Z,4.24
2019-04-04T03:36:00.967Z,4.23
2019-04-04T03:38:25.962Z,4.19
2019-04-04T03:40:51.824Z,3.90
2019-04-04T03:43:17.660Z,4.12
2019-04-04T03:45:43.713Z,4.13
2019-04-04T03:48:09.572Z,4.14
2019-04-04T03:50:35.528Z,4.16
2019-04-04T03:53:01.559Z,4.19
2019-04-04T03:55:28.554Z,4.20
2019-04-04T03:57:55.269Z,4.22
2019-04-04T04:00:23.290Z,4.21
2019-04-04T04:02:50.172Z,4.22
2019-04-04T04:05:27.672Z,4.19
2019-04-04T04:07:53.495Z,4.19
2019-04-04T04:10:19.376Z,4.21
2019-04-04T04:12:45.447Z,4.22
2019-04-04T04:15:11.430Z,4.23
2019-04-04T04:17:37.290Z,4.24
2019-04-04T04:20:04.841Z,4.26
2019-04-04T04:22:30.713Z,4.27
2019-04-04T04:24:56.555Z,4.29
2019-04-04T04:27:22.635Z,4.28
2019-04-04T04:29:48.498Z,4.27
2019-04-04T04:32:14.352Z,4.23
2019-04-04T04:34:40.449Z,4.20
2019-04-04T04:37:06.296Z,4.20
2019-04-04T04:39:35.895Z,4.17
2019-04-04T04:42:00.017Z,4.14
2019-04-04T04:44:25.858Z,4.14
2019-04-04T04:46:51.715Z,4.15
2019-04-04T04:49:17.689Z,4.15
2019-04-04T04:51:44.272Z,4.16
2019-04-04T04:54:10.195Z,4.15
2019-04-04T04:56:36.153Z,4.16
2019-04-04T04:59:02.034Z,4.17
2019-04-04T05:01:27.909Z,4.18
2019-04-04T05:03:56.230Z,4.22
2019-04-04T05:06:21.781Z,4.01
2019-04-04T05:08:47.777Z,4.24
2019-04-04T05:11:14.590Z,4.26
2019-04-04T05:13:40.667Z,4.26
2019-04-04T05:16:08.887Z,4.26
2019-04-04T05:18:34.333Z,4.27
2019-04-04T05:21:01.966Z,4.28
2019-04-04T05:23:28.009Z,4.28
2019-04-04T05:25:54.478Z,4.28
2019-04-04T05:28:20.363Z,4.29
2019-04-04T05:30:47.306Z,4.30
2019-04-04T05:33:13.834Z,4.27
2019-04-04T05:35:39.921Z,4.25
2019-04-04T05:38:07.707Z,4.28
2019-04-04T05:40:33.964Z,4.29
2019-04-04T05:42:59.751Z,4.32
2019-04-04T05:45:26.985Z,4.33
2019-04-04T05:47:54.960Z,4.35
2019-04-04T05:50:20.606Z,4.34
2019-04-04T05:52:46.475Z,4.35
2019-04-04T05:55:12.613Z,4.36
2019-04-04T05:57:38.566Z,4.37
2019-04-04T06:00:05.461Z,4.36
2019-04-04T06:02:31.398Z,4.34
2019-04-04T06:04:57.584Z,4.36
2019-04-04T06:07:23.488Z,4.34
2019-04-04T06:09:49.683Z,4.36
2019-04-04T06:12:15.631Z,4.39
2019-04-04T06:14:41.634Z,4.36
2019-04-04T06:17:07.948Z,4.37
2019-04-04T06:19:33.969Z,4.37
2019-04-04T06:21:59.806Z,4.36
2019-04-04T06:24:27.262Z,4.35
2019-04-04T06:26:53.568Z,4.36
2019-04-04T06:29:19.485Z,4.38
2019-04-04T06:31:45.569Z,4.36
2019-04-04T06:34:11.592Z,4.39
2019-04-04T06:36:37.441Z,4.41
2019-04-04T06:39:05.884Z,4.42
2019-04-04T06:41:32.477Z,4.43
2019-04-04T06:43:58.637Z,4.40
2019-04-04T06:46:24.593Z,4.42
2019-04-04T06:48:50.473Z,4.45
2019-04-04T06:51:16.358Z,4.47
2019-04-04T06:53:42.443Z,4.52
2019-04-04T06:56:08.294Z,4.56
2019-04-04T06:58:34.166Z,4.60
2019-04-04T07:01:00.147Z,4.63
2019-04-04T07:03:27.920Z,4.65
2019-04-04T07:05:53.797Z,4.68
2019-04-04T07:08:19.745Z,4.69
2019-04-04T07:10:57.139Z,4.70
2019-04-04T07:13:21.657Z,4.72
2019-04-04T07:15:46.778Z,4.75
2019-04-04T07:18:10.167Z,4.78
2019-04-04T07:20:36.680Z,4.81
2019-04-04T07:23:02.722Z,4.80
2019-04-04T07:25:28.608Z,4.79
2019-04-04T07:27:54.480Z,4.78
2019-04-04T07:30:20.630Z,4.80
2019-04-04T07:32:46.526Z,4.81
2019-04-04T07:35:12.507Z,4.82
2019-04-04T07:37:38.486Z,4.80
2019-04-04T07:40:04.865Z,4.82
2019-04-04T07:42:30.749Z,4.86
2019-04-04T07:44:56.800Z,4.90
2019-04-04T07:47:22.659Z,4.94
2019-04-04T07:49:48.514Z,4.97
2019-04-04T07:52:17.091Z,5.00
2019-04-04T07:54:42.436Z,5.02
2019-04-04T07:57:08.254Z,5.04
2019-04-04T07:59:34.325Z,5.08
2019-04-04T08:02:00.182Z,5.10
2019-04-04T08:04:26.160Z,5.12
2019-04-04T08:06:52.117Z,5.16
2019-04-04T08:09:17.992Z,5.19
2019-04-04T08:11:43.951Z,5.21
2019-04-04T08:14:09.947Z,5.24
2019-04-04T08:16:35.800Z,5.26
2019-04-04T08:19:01.683Z,5.29
2019-04-04T08:21:27.639Z,5.31
2019-04-04T08:23:53.519Z,5.32
2019-04-04T08:26:19.474Z,5.35
2019-04-04T08:28:45.529Z,5.39
2019-04-04T08:31:11.398Z,5.41
2019-04-04T08:33:37.253Z,5.42
2019-04-04T08:36:06.251Z,5.40
2019-04-04T08:38:31.127Z,5.42
2019-04-04T08:40:57.077Z,5.43
2019-04-04T08:43:23.268Z,5.45
2019-04-04T08:45:49.148Z,5.46
2019-04-04T08:48:15.119Z,5.48
2019-04-04T08:50:41.172Z,5.51
2019-04-04T08:53:07.055Z,5.54
2019-04-04T08:55:33.171Z,5.56
2019-04-04T08:57:59.478Z,5.61
2019-04-04T09:00:25.334Z,5.64
2019-04-04T09:02:51.200Z,5.66
2019-04-04T09:05:17.288Z,5.68
2019-04-04T09:07:43.129Z,5.68
2019-04-04T09:10:09.197Z,5.68
2019-04-04T09:12:35.233Z,5.69
2019-04-04T09:15:01.237Z,5.71
2019-04-04T09:17:27.229Z,5.77
2019-04-04T09:19:53.239Z,5.81
2019-04-04T09:22:19.154Z,5.86
2019-04-04T09:24:45.035Z,5.88
2019-04-04T09:27:11.094Z,5.90
2019-04-04T09:29:37.070Z,5.91
2019-04-04T09:32:03.219Z,5.94
2019-04-04T09:34:29.172Z,5.96
2019-04-04T09:36:55.161Z,6.00
2019-04-04T09:39:21.065Z,6.06
2019-04-04T09:41:47.065Z,6.10
2019-04-04T09:44:12.938Z,6.09
2019-04-04T09:46:38.856Z,6.11
2019-04-04T09:49:04.858Z,6.15
2019-04-04T09:51:30.725Z,6.15
2019-04-04T09:53:56.618Z,6.20
2019-04-04T09:56:22.682Z,6.23
2019-04-04T09:58:48.580Z,6.25
2019-04-04T10:01:14.517Z,6.29
2019-04-04T10:03:40.663Z,6.33
2019-04-04T10:06:06.641Z,6.39
2019-04-04T10:08:32.604Z,6.46
2019-04-04T10:10:58.745Z,6.49
2019-04-04T10:13:24.717Z,6.52
2019-04-04T10:15:50.608Z,6.52
2019-04-04T10:18:16.643Z,6.55
2019-04-04T10:20:42.598Z,6.61
2019-04-04T10:23:08.556Z,6.66
2019-04-04T10:25:34.627Z,6.70
2019-04-04T10:28:00.510Z,6.75
2019-04-04T10:30:26.585Z,6.77
2019-04-04T10:32:52.737Z,6.81
2019-04-04T10:35:18.592Z,6.84
2019-04-04T10:37:44.466Z,6.87
2019-04-04T10:40:11.064Z,6.91
2019-04-04T10:42:36.919Z,6.94
2019-04-04T10:45:04.628Z,6.97
2019-04-04T10:47:30.611Z,7.00
2019-04-04T10:49:58.547Z,7.03
2019-04-04T10:52:24.247Z,7.07
2019-04-04T10:54:50.426Z,7.10
2019-04-04T10:57:16.430Z,7.13
2019-04-04T10:59:42.305Z,7.06
2019-04-04T11:02:08.564Z,7.14
2019-04-04T11:04:34.433Z,7.15
2019-04-04T11:07:00.308Z,6.96
2019-04-04T11:09:26.356Z,7.23
2019-04-04T11:11:52.270Z,7.26
2019-04-04T11:14:18.120Z,7.29
2019-04-04T11:16:44.166Z,7.30
2019-04-04T11:19:10.279Z,7.32
2019-04-04T11:21:36.261Z,7.33
2019-04-04T11:24:02.405Z,7.32
2019-04-04T11:26:28.314Z,7.34
2019-04-04T11:28:54.268Z,7.36
2019-04-04T11:31:20.435Z,7.40
2019-04-04T11:33:46.299Z,7.45
2019-04-04T11:36:12.161Z,7.48
2019-04-04T11:38:38.211Z,7.51
2019-04-04T11:41:04.104Z,7.53
2019-04-04T11:43:29.961Z,7.56
2019-04-04T11:45:56.011Z,7.59
2019-04-04T11:48:21.865Z,7.61
2019-04-04T11:50:47.840Z,7.63
2019-04-04T11:53:13.860Z,7.68
2019-04-04T11:55:39.748Z,7.71
2019-04-04T11:58:05.614Z,7.74
2019-04-04T12:00:36.218Z,7.76
2019-04-04T12:03:02.272Z,7.78
2019-04-04T12:05:28.155Z,7.81
2019-04-04T12:07:54.151Z,7.83
2019-04-04T12:10:20.114Z,7.84
2019-04-04T12:12:45.997Z,7.85
2019-04-04T12:15:12.183Z,7.87
2019-04-04T12:17:38.024Z,7.89
2019-04-04T12:20:04.822Z,7.90
2019-04-04T12:22:30.849Z,7.91
2019-04-04T12:24:56.758Z,7.92
2019-04-04T12:27:22.727Z,7.97
2019-04-04T12:29:48.784Z,7.96
2019-04-04T12:32:14.644Z,7.98
2019-04-04T12:34:40.633Z,7.97
2019-04-04T12:37:06.583Z,8.00
2019-04-04T12:39:32.436Z,8.00
2019-04-04T12:41:58.400Z,7.97
2019-04-04T12:44:24.386Z,7.98
2019-04-04T12:46:50.301Z,7.98
2019-04-04T12:49:16.356Z,7.94
2019-04-04T12:51:42.353Z,7.94
2019-04-04T12:54:08.209Z,7.95
2019-04-04T12:56:34.096Z,7.94
2019-04-04T12:59:00.167Z,7.92
2019-04-04T13:01:26.144Z,7.91
2019-04-04T13:03:52.007Z,7.90
2019-04-04T13:06:17.943Z,7.90
2019-04-04T13:08:47.248Z,7.88
2019-04-04T13:11:13.232Z,7.85
2019-04-04T13:13:41.169Z,7.81
2019-04-04T13:16:07.018Z,7.80
2019-04-04T13:18:32.927Z,7.82
2019-04-04T13:20:58.962Z,7.83
2019-04-04T13:23:24.822Z,7.76
2019-04-04T13:25:50.685Z,7.71
2019-04-04T13:28:16.709Z,7.71
2019-04-04T13:30:42.560Z,7.71
2019-04-04T13:33:08.479Z,7.71
2019-04-04T13:35:37.684Z,7.73
2019-04-04T13:38:02.179Z,7.79
2019-04-04T13:40:28.182Z,7.82
2019-04-04T13:42:54.344Z,7.87
2019-04-04T13:45:20.243Z,7.90
2019-04-04T13:47:46.178Z,7.90
2019-04-04T13:50:12.862Z,7.92
2019-04-04T13:52:38.756Z,7.92
2019-04-04T13:55:05.434Z,7.94
2019-04-04T13:57:31.410Z,7.93
2019-04-04T13:59:57.274Z,7.94
2019-04-04T14:02:23.280Z,7.93
2019-04-04T14:04:49.422Z,7.93
2019-04-04T14:07:15.272Z,7.93
2019-04-04T14:09:44.460Z,7.94
2019-04-04T14:12:08.959Z,7.92
2019-04-04T14:14:34.841Z,7.91
2019-04-04T14:17:00.836Z,7.89
2019-04-04T14:19:26.902Z,7.85
2019-04-04T14:21:52.909Z,7.82
2019-04-04T14:24:18.881Z,7.80
2019-04-04T14:26:46.141Z,7.77
2019-04-04T14:29:12.310Z,7.74
2019-04-04T14:31:38.290Z,7.72
2019-04-04T14:34:04.261Z,7.70
2019-04-04T14:36:30.228Z,7.68
2019-04-04T14:38:56.278Z,7.68
2019-04-04T14:41:22.302Z,7.71
2019-04-04T14:43:48.301Z,7.73
2019-04-04T14:46:14.160Z,7.72
2019-04-04T14:48:42.134Z,7.67
2019-04-04T14:51:07.843Z,7.62
2019-04-04T14:53:33.770Z,7.58
2019-04-04T14:55:59.736Z,7.55
2019-04-04T14:58:25.604Z,7.54
2019-04-04T15:00:51.482Z,7.58
2019-04-04T15:03:17.542Z,7.60
2019-04-04T15:05:43.407Z,7.60
2019-04-04T15:08:09.278Z,7.62
2019-04-04T15:10:35.249Z,7.64
2019-04-04T15:13:01.142Z,7.65
2019-04-04T15:15:27.023Z,7.68
2019-04-04T15:17:53.001Z,7.70
2019-04-04T15:20:18.973Z,7.72
2019-04-04T15:22:44.911Z,7.70
2019-04-04T15:25:11.040Z,7.68
2019-04-04T15:27:37.097Z,7.68
2019-04-04T15:30:04.489Z,7.68
2019-04-04T15:32:30.455Z,7.66
2019-04-04T15:34:56.320Z,7.65
2019-04-04T15:37:22.211Z,7.63
2019-04-04T15:39:48.253Z,7.65
2019-04-04T15:42:14.290Z,7.66
2019-04-04T15:44:40.130Z,7.64
2019-04-04T15:47:06.982Z,7.64
2019-04-04T15:49:32.965Z,7.37
2019-04-04T15:51:59.684Z,7.56
2019-04-04T15:54:25.768Z,7.62
2019-04-04T15:56:51.633Z,7.64
2019-04-04T15:59:17.513Z,7.63
2019-04-04T16:01:43.664Z,7.63
2019-04-04T16:04:09.550Z,7.38
2019-04-04T16:06:35.528Z,7.58
2019-04-04T16:09:01.656Z,7.49
2019-04-04T16:11:27.537Z,7.41
2019-04-04T16:13:53.394Z,7.33
2019-04-04T16:16:19.378Z,7.25
2019-04-04T16:18:45.301Z,7.14
2019-04-04T16:21:11.191Z,7.04
2019-04-04T16:23:37.348Z,6.98
2019-04-04T16:26:03.710Z,6.86
2019-04-04T16:28:29.578Z,6.79
2019-04-04T16:30:55.685Z,6.74
2019-04-04T16:33:21.666Z,6.68
2019-04-04T16:35:47.522Z,6.60
2019-04-04T16:38:13.504Z,6.51
2019-04-04T16:40:39.458Z,6.45
2019-04-04T16:43:05.365Z,6.44
2019-04-04T16:45:31.480Z,6.40
2019-04-04T16:47:57.470Z,6.39
2019-04-04T16:50:23.473Z,6.31
2019-04-04T16:52:49.517Z,6.24
2019-04-04T16:55:15.526Z,6.17
2019-04-04T16:57:43.286Z,6.11
2019-04-04T17:00:10.760Z,6.11
2019-04-04T17:02:36.629Z,6.08
2019-04-04T17:05:03.347Z,6.05
2019-04-04T17:07:29.402Z,5.99
2019-04-04T17:09:56.181Z,5.95
2019-04-04T17:12:22.037Z,5.95
2019-04-04T17:14:47.977Z,5.93
2019-04-04T17:17:13.860Z,5.93
2019-04-04T17:19:39.725Z,5.92
2019-04-04T17:22:05.962Z,5.85
2019-04-04T17:24:32.078Z,5.77
2019-04-04T17:26:57.926Z,5.73
2019-04-04T17:29:23.907Z,5.71
2019-04-04T17:31:50.282Z,5.69
2019-04-04T17:34:16.297Z,5.68
2019-04-04T17:36:42.254Z,5.66
2019-04-04T17:39:08.527Z,5.64
2019-04-04T17:41:34.931Z,5.62
2019-04-04T17:44:01.210Z,5.60
2019-04-04T17:46:27.462Z,5.58
2019-04-04T17:48:53.375Z,5.57
2019-04-04T17:51:19.418Z,5.58
2019-04-04T17:53:45.675Z,5.59
2019-04-04T17:56:12.309Z,5.56
2019-04-04T17:58:38.519Z,5.51
2019-04-04T18:01:05.503Z,5.40
2019-04-04T18:03:31.379Z,5.36
2019-04-04T18:05:57.509Z,5.34
2019-04-04T18:08:23.381Z,5.35
2019-04-04T18:10:49.240Z,5.36
2019-04-04T18:13:15.273Z,5.37
2019-04-04T18:15:41.269Z,5.35
2019-04-04T18:18:07.258Z,5.34
2019-04-04T18:20:33.371Z,5.31
2019-04-04T18:22:59.260Z,5.28
2019-04-04T18:25:25.130Z,5.27
2019-04-04T18:27:51.216Z,5.25
2019-04-04T18:30:17.207Z,5.25
2019-04-04T18:32:43.089Z,5.23
2019-04-04T18:35:09.357Z,5.21
2019-04-04T18:37:35.543Z,5.20
2019-04-04T18:40:01.728Z,5.17
2019-04-04T18:42:27.759Z,5.13
2019-04-04T18:44:55.977Z,5.07
2019-04-04T18:47:21.967Z,5.04
2019-04-04T18:49:48.164Z,5.01
2019-04-04T18:52:14.033Z,5.00
2019-04-04T18:54:40.033Z,5.00
2019-04-04T18:57:06.094Z,5.01
2019-04-04T18:59:31.969Z,4.97
2019-04-04T19:01:57.921Z,4.93
2019-04-04T19:04:24.034Z,4.89
2019-04-04T19:06:50.031Z,4.90
2019-04-04T19:09:16.025Z,4.90
2019-04-04T19:11:42.100Z,4.90
2019-04-04T19:14:08.070Z,4.92
2019-04-04T19:16:33.929Z,4.95
2019-04-04T19:19:00.052Z,4.96
2019-04-04T19:21:26.028Z,4.97
2019-04-04T19:23:51.974Z,4.97
2019-04-04T19:26:18.029Z,4.95
2019-04-04T19:28:44.098Z,4.94
2019-04-04T19:31:10.235Z,4.90
2019-04-04T19:33:36.303Z,4.88
2019-04-04T19:36:02.264Z,4.82
2019-04-04T19:38:28.179Z,4.79
2019-04-04T19:40:54.216Z,4.74
2019-04-04T19:43:20.168Z,4.70
2019-04-04T19:45:46.011Z,4.67
2019-04-04T19:48:12.099Z,4.63
2019-04-04T19:50:39.285Z,4.61
2019-04-04T19:53:05.372Z,4.60
2019-04-04T19:55:31.419Z,4.58
2019-04-04T19:57:57.296Z,4.58
2019-04-04T20:00:23.753Z,4.55
2019-04-04T20:02:49.726Z,4.55
2019-04-04T20:05:15.831Z,4.57
2019-04-04T20:07:41.812Z,4.58
2019-04-04T20:10:07.863Z,4.56
2019-04-04T20:12:33.736Z,4.54
2019-04-04T20:14:59.711Z,4.50
2019-04-04T20:17:25.785Z,4.49
2019-04-04T20:19:51.642Z,4.48
2019-04-04T20:22:17.605Z,4.47
2019-04-04T20:24:43.578Z,4.47
2019-04-04T20:27:09.578Z,4.17
2019-04-04T20:29:35.522Z,4.37
2019-04-04T20:32:01.572Z,4.31
2019-04-04T20:34:27.470Z,4.27
2019-04-04T20:36:53.433Z,4.20
2019-04-04T20:39:19.465Z,4.14
2019-04-04T20:41:45.369Z,4.22
2019-04-04T20:44:11.216Z,4.24
2019-04-04T20:46:37.261Z,4.26
2019-04-04T20:49:03.230Z,4.28
2019-04-04T20:51:29.061Z,4.28
2019-04-04T20:53:55.084Z,4.24
2019-04-04T20:56:20.967Z,4.20
2019-04-04T20:58:46.967Z,4.18
2019-04-04T21:01:13.002Z,4.18
2019-04-04T21:03:38.986Z,4.19
2019-04-04T21:06:04.978Z,4.20
2019-04-04T21:08:31.097Z,4.17
2019-04-04T21:10:56.970Z,4.16
2019-04-04T21:13:22.851Z,4.13
2019-04-04T21:15:48.879Z,4.11
2019-04-04T21:18:14.892Z,4.10
2019-04-04T21:20:40.772Z,4.10
2019-04-04T21:23:06.780Z,4.10
2019-04-04T21:25:32.764Z,4.11
2019-04-04T21:27:58.648Z,4.11
2019-04-04T21:30:24.813Z,4.10
2019-04-04T21:32:50.711Z,4.09
2019-04-04T21:35:16.711Z,4.06
2019-04-04T21:37:42.735Z,4.04
2019-04-04T21:40:08.678Z,4.03
2019-04-04T21:42:34.635Z,4.02
2019-04-04T21:45:00.662Z,4.02
2019-04-04T21:47:26.508Z,4.00
2019-04-04T21:49:52.419Z,3.98
2019-04-04T21:52:18.442Z,3.95
2019-04-04T21:54:44.286Z,3.93
2019-04-04T21:57:10.174Z,3.93
2019-04-04T21:59:36.240Z,3.91
2019-04-04T22:02:02.184Z,3.89
2019-04-04T22:04:28.162Z,3.86
2019-04-04T22:06:54.218Z,3.82
2019-04-04T22:09:20.096Z,3.79
2019-04-04T22:11:46.225Z,3.73
2019-04-04T22:14:21.703Z,3.66
2019-04-04T22:16:40.715Z,3.61
2019-04-04T22:19:06.618Z,3.58
2019-04-04T22:21:32.698Z,3.55
2019-04-04T22:23:58.529Z,3.51
2019-04-04T22:26:24.451Z,3.49
2019-04-04T22:28:50.426Z,3.44
2019-04-04T22:31:16.423Z,3.37
2019-04-04T22:33:42.319Z,3.33
2019-04-04T22:36:08.284Z,3.30
2019-04-04T22:38:34.156Z,3.31
2019-04-04T22:41:00.118Z,3.29
2019-04-04T22:43:26.248Z,3.27
2019-04-04T22:45:52.116Z,3.24
2019-04-04T22:48:18.005Z,3.24
2019-04-04T22:50:44.130Z,3.22
2019-04-04T22:53:09.978Z,3.20
2019-04-04T22:55:35.837Z,3.17
2019-04-04T22:58:01.875Z,3.16
2019-04-04T23:00:27.739Z,3.13
2019-04-04T23:02:53.829Z,3.10
2019-04-04T23:05:19.868Z,3.07
2019-04-04T23:07:45.765Z,3.04
2019-04-04T23:10:11.735Z,3.03
2019-04-04T23:12:37.686Z,3.03
2019-04-04T23:15:05.503Z,3.00
2019-04-04T23:17:31.345Z,2.98
2019-04-04T23:19:57.277Z,2.97
2019-04-04T23:22:23.246Z,2.95
2019-04-04T23:24:49.115Z,2.93
2019-04-04T23:27:15.245Z,2.93
2019-04-04T23:29:42.581Z,2.92
2019-04-04T23:32:08.602Z,2.88
2019-04-04T23:34:34.586Z,2.87
2019-04-04T23:37:00.459Z,2.85
2019-04-04T23:39:26.364Z,2.82
2019-04-04T23:41:52.434Z,2.82
2019-04-04T23:44:18.306Z,2.79
2019-04-04T23:46:44.261Z,2.77
2019-04-04T23:49:10.320Z,2.76
2019-04-04T23:51:36.182Z,2.73
2019-04-04T23:54:02.155Z,2.70
2019-04-04T23:56:28.197Z,2.70
2019-04-04T23:58:54.173Z,2.68
